createdAt,value
2019-01-03T00:00:41.981Z,2.85
2019-01-03T00:03:34.689Z,3.67
2019-01-03T00:06:21.282Z,2.75
2019-01-03T00:09:07.472Z,2.65
2019-01-03T00:11:48.377Z,2.65
2019-01-03T00:14:37.000Z,2.72
2019-01-03T00:17:38.767Z,3.53
2019-01-03T00:20:18.837Z,2.95
2019-01-03T00:23:04.434Z,2.70
2019-01-03T00:25:57.235Z,2.60
2019-01-03T00:28:49.775Z,2.85
2019-01-03T00:31:39.457Z,2.78
2019-01-03T00:34:26.512Z,2.87
2019-01-03T00:37:28.615Z,2.95
2019-01-03T00:40:16.030Z,2.67
2019-01-03T00:43:02.005Z,2.55
2019-01-03T00:45:49.105Z,2.50
2019-01-03T00:48:34.725Z,2.35
2019-01-03T00:51:20.285Z,2.78
2019-01-03T00:54:13.049Z,3.05
2019-01-03T00:57:01.693Z,2.65
2019-01-03T00:59:48.826Z,2.12
2019-01-03T01:02:35.564Z,2.33
2019-01-03T01:05:40.360Z,2.17
2019-01-03T01:08:30.604Z,2.20
2019-01-03T01:11:29.847Z,2.00
2019-01-03T01:14:16.850Z,1.83
2019-01-03T01:17:02.470Z,2.78
2019-01-03T01:19:52.284Z,2.47
2019-01-03T01:22:38.123Z,2.50
2019-01-03T01:25:28.719Z,2.37
2019-01-03T01:28:16.291Z,2.67
2019-01-03T01:31:02.777Z,2.42
2019-01-03T01:33:48.224Z,1.92
2019-01-03T01:36:40.486Z,1.90
2019-01-03T01:39:30.817Z,1.95
2019-01-03T01:42:16.984Z,1.83
2019-01-03T01:45:04.558Z,1.85
2019-01-03T01:48:03.942Z,1.73
2019-01-03T01:50:49.970Z,2.03
2019-01-03T01:53:32.869Z,1.95
2019-01-03T01:56:21.218Z,1.75
2019-01-03T01:59:26.301Z,1.65
2019-01-03T02:02:22.089Z,1.77
2019-01-03T02:05:15.088Z,2.10
2019-01-03T02:08:00.403Z,2.10
2019-01-03T02:10:50.037Z,2.00
2019-01-03T02:13:49.266Z,2.05
2019-01-03T02:16:44.833Z,1.90
2019-01-03T02:19:34.990Z,1.67
2019-01-03T02:22:36.868Z,2.10
2019-01-03T02:25:22.682Z,2.37
2019-01-03T02:28:19.284Z,1.42
2019-01-03T02:31:02.853Z,1.40
2019-01-03T02:34:02.128Z,1.55
2019-01-03T02:36:47.603Z,1.40
2019-01-03T02:39:45.582Z,1.73
2019-01-03T02:42:39.024Z,1.70
2019-01-03T02:45:20.915Z,2.10
2019-01-03T02:48:26.103Z,2.03
2019-01-03T02:51:11.807Z,1.50
2019-01-03T02:54:06.997Z,1.90
2019-01-03T02:56:52.904Z,1.98
2019-01-03T02:59:40.303Z,1.67
2019-01-03T03:02:33.304Z,1.62
2019-01-03T03:05:20.853Z,1.55
2019-01-03T03:08:13.735Z,1.73
2019-01-03T03:11:02.118Z,1.67
2019-01-03T03:13:47.692Z,2.12
2019-01-03T03:16:30.734Z,1.55
2019-01-03T03:19:26.220Z,1.85
2019-01-03T03:22:16.538Z,1.90
2019-01-03T03:24:58.860Z,1.58
2019-01-03T03:27:53.371Z,2.08
2019-01-03T03:30:53.023Z,1.25
2019-01-03T03:33:51.753Z,1.80
2019-01-03T03:36:48.425Z,2.03
2019-01-03T03:39:33.961Z,2.03
2019-01-03T03:42:20.134Z,1.30
2019-01-03T03:45:01.658Z,2.30
2019-01-03T03:47:48.645Z,1.83
2019-01-03T03:50:34.182Z,2.22
2019-01-03T03:53:18.543Z,1.50
2019-01-03T03:56:11.726Z,2.17
2019-01-03T03:59:06.664Z,2.10
2019-01-03T04:01:53.805Z,2.08
2019-01-03T04:04:41.397Z,1.95
2019-01-03T04:07:46.398Z,2.00
2019-01-03T04:10:31.375Z,1.62
2019-01-03T04:13:18.529Z,2.40
2019-01-03T04:16:05.486Z,2.17
2019-01-03T04:18:55.154Z,3.47
2019-01-03T04:21:39.041Z,2.10
2019-01-03T04:24:32.240Z,2.28
2019-01-03T04:27:13.457Z,2.55
2019-01-03T04:29:58.604Z,2.37
2019-01-03T04:32:45.888Z,2.67
2019-01-03T04:35:47.424Z,2.15
2019-01-03T04:38:52.267Z,2.10
2019-01-03T04:41:52.047Z,2.40
2019-01-03T04:44:41.892Z,2.90
2019-01-03T04:47:31.341Z,1.87
2019-01-03T04:50:27.607Z,2.60
2019-01-03T04:53:13.898Z,2.53
2019-01-03T04:56:01.416Z,2.10
2019-01-03T04:58:54.367Z,2.25
2019-01-03T05:02:18.429Z,2.58
2019-01-03T05:05:01.877Z,2.10
2019-01-03T05:08:04.261Z,2.25
2019-01-03T05:11:06.404Z,1.98
2019-01-03T05:14:11.216Z,2.17
2019-01-03T05:16:56.522Z,1.80
2019-01-03T05:19:46.431Z,2.10
2019-01-03T05:22:47.232Z,1.85
2019-01-03T05:25:35.423Z,2.05
2019-01-03T05:28:18.473Z,1.92
2019-01-03T05:31:06.334Z,2.33
2019-01-03T05:33:53.307Z,1.70
2019-01-03T05:36:32.213Z,2.55
2019-01-03T05:39:24.618Z,1.73
2019-01-03T05:42:17.635Z,2.10
2019-01-03T05:45:13.857Z,2.40
2019-01-03T05:48:06.668Z,2.58
2019-01-03T05:51:00.547Z,2.83
2019-01-03T05:53:53.549Z,2.92
2019-01-03T05:56:36.679Z,2.65
2019-01-03T05:59:36.606Z,2.47
2019-01-03T06:02:27.046Z,2.95
2019-01-03T06:05:17.129Z,3.75
2019-01-03T06:08:04.975Z,3.35
2019-01-03T06:10:55.091Z,4.10
2019-01-03T06:13:44.776Z,3.62
2019-01-03T06:16:31.778Z,3.08
2019-01-03T06:19:17.107Z,4.57
2019-01-03T06:21:59.426Z,4.10
2019-01-03T06:24:48.901Z,4.20
2019-01-03T06:27:38.530Z,4.30
2019-01-03T06:30:31.497Z,4.65
2019-01-03T06:33:15.924Z,4.45
2019-01-03T06:35:57.246Z,3.97
2019-01-03T06:38:41.315Z,4.10
2019-01-03T06:41:24.455Z,3.33
2019-01-03T06:44:20.350Z,3.95
2019-01-03T06:47:05.727Z,3.87
2019-01-03T06:49:51.481Z,4.50
2019-01-03T06:52:31.577Z,3.70
2019-01-03T06:55:18.572Z,3.62
2019-01-03T06:58:08.287Z,3.70
2019-01-03T07:00:46.704Z,4.10
2019-01-03T07:03:39.890Z,4.82
2019-01-03T07:06:24.726Z,3.58
2019-01-03T07:09:10.236Z,4.30
2019-01-03T07:11:53.216Z,4.62
2019-01-03T07:14:51.973Z,4.45
2019-01-03T07:17:41.738Z,4.55
2019-01-03T07:20:46.964Z,4.20
2019-01-03T07:23:32.314Z,5.18
2019-01-03T07:26:18.007Z,4.47
2019-01-03T07:29:03.666Z,4.53
2019-01-03T07:31:49.178Z,4.62
2019-01-03T07:34:34.743Z,4.70
2019-01-03T07:37:33.728Z,3.97
2019-01-03T07:40:23.764Z,4.07
2019-01-03T07:43:20.988Z,5.43
2019-01-03T07:46:05.627Z,5.03
2019-01-03T07:48:50.920Z,4.37
2019-01-03T07:51:37.747Z,4.85
2019-01-03T07:54:39.756Z,5.43
2019-01-03T07:57:29.374Z,4.45
2019-01-03T08:00:15.122Z,4.97
2019-01-03T08:03:00.735Z,4.93
2019-01-03T08:05:46.347Z,5.05
2019-01-03T08:08:36.149Z,4.00
2019-01-03T08:11:31.654Z,4.37
2019-01-03T08:14:24.294Z,4.87
2019-01-03T08:17:11.260Z,4.55
2019-01-03T08:19:51.272Z,4.65
2019-01-03T08:22:36.608Z,4.35
2019-01-03T08:25:15.491Z,4.15
2019-01-03T08:28:01.525Z,3.95
2019-01-03T08:30:57.844Z,4.25
2019-01-03T08:33:43.497Z,4.12
2019-01-03T08:36:36.572Z,3.65
2019-01-03T08:39:22.334Z,4.15
2019-01-03T08:42:11.862Z,3.83
2019-01-03T08:45:16.689Z,3.33
2019-01-03T08:48:03.699Z,4.25
2019-01-03T08:50:53.167Z,3.70
2019-01-03T08:53:58.534Z,3.62
2019-01-03T08:56:43.783Z,3.20
2019-01-03T08:59:31.094Z,4.15
2019-01-03T09:02:35.181Z,3.10
2019-01-03T09:05:20.880Z,3.53
2019-01-03T09:08:10.653Z,3.22
2019-01-03T09:11:00.764Z,3.05
2019-01-03T09:13:47.736Z,3.47
2019-01-03T09:16:37.395Z,3.05
2019-01-03T09:19:39.185Z,2.80
2019-01-03T09:22:25.064Z,3.17
2019-01-03T09:25:27.526Z,2.62
2019-01-03T09:28:21.306Z,3.12
2019-01-03T09:31:06.589Z,2.65
2019-01-03T09:33:53.059Z,2.47
2019-01-03T09:36:58.017Z,2.70
2019-01-03T09:39:45.623Z,3.40
2019-01-03T09:42:30.932Z,2.67
2019-01-03T09:44:58.659Z,2.20
2019-01-03T09:47:26.684Z,2.47
2019-01-03T09:49:54.412Z,2.40
2019-01-03T09:52:22.395Z,2.58
2019-01-03T09:54:50.391Z,2.72
2019-01-03T09:57:18.112Z,2.55
2019-01-03T09:59:46.098Z,2.37
2019-01-03T10:02:14.058Z,2.72
2019-01-03T10:04:42.043Z,2.35
2019-01-03T10:07:09.781Z,2.67
2019-01-03T10:09:37.486Z,3.60
2019-01-03T10:12:05.457Z,3.42
2019-01-03T10:14:33.208Z,3.40
2019-01-03T10:17:01.205Z,3.33
2019-01-03T10:19:28.953Z,2.33
2019-01-03T10:21:57.235Z,2.47
2019-01-03T10:24:25.225Z,2.10
2019-01-03T10:26:53.611Z,2.50
2019-01-03T10:29:21.957Z,2.53
2019-01-03T10:31:49.934Z,2.05
2019-01-03T10:34:17.891Z,2.20
2019-01-03T10:36:46.097Z,1.77
2019-01-03T10:39:14.037Z,2.33
2019-01-03T10:41:42.266Z,1.67
2019-01-03T10:44:10.310Z,2.05
2019-01-03T10:46:38.282Z,1.90
2019-01-03T10:49:06.228Z,1.70
2019-01-03T10:51:34.332Z,1.60
2019-01-03T10:54:02.034Z,1.50
2019-01-03T10:56:30.080Z,2.22
2019-01-03T10:58:58.523Z,1.90
2019-01-03T11:01:26.502Z,1.90
2019-01-03T11:03:54.456Z,1.60
2019-01-03T11:06:22.760Z,1.67
2019-01-03T11:08:50.892Z,1.50
2019-01-03T11:11:18.893Z,1.80
2019-01-03T11:13:47.220Z,1.77
2019-01-03T11:16:15.198Z,1.70
2019-01-03T11:18:43.129Z,1.70
2019-01-03T11:21:11.238Z,2.03
2019-01-03T11:23:38.988Z,2.15
2019-01-03T11:26:06.957Z,1.73
2019-01-03T11:28:35.164Z,1.83
2019-01-03T11:31:03.237Z,1.37
2019-01-03T11:33:31.231Z,1.80
2019-01-03T11:35:59.348Z,1.50
2019-01-03T11:38:27.029Z,2.00
2019-01-03T11:40:55.031Z,1.98
2019-01-03T11:43:23.133Z,1.70
2019-01-03T11:45:51.843Z,1.37
2019-01-03T11:48:19.524Z,1.60
2019-01-03T11:50:47.671Z,1.40
2019-01-03T11:53:15.691Z,1.92
2019-01-03T11:55:44.227Z,1.95
2019-01-03T11:58:12.523Z,1.77
2019-01-03T12:00:40.547Z,1.40
2019-01-03T12:03:08.560Z,1.37
2019-01-03T12:05:36.731Z,1.52
2019-01-03T12:08:04.861Z,1.75
2019-01-03T12:10:32.858Z,1.20
2019-01-03T12:13:00.641Z,1.20
2019-01-03T12:15:28.666Z,1.83
2019-01-03T12:17:56.633Z,1.10
2019-01-03T12:20:24.371Z,1.25
2019-01-03T12:22:52.108Z,1.30
2019-01-03T12:25:20.593Z,1.58
2019-01-03T12:27:48.318Z,0.93
2019-01-03T12:30:16.866Z,1.50
2019-01-03T12:32:44.835Z,1.55
2019-01-03T12:35:12.866Z,1.45
2019-01-03T12:37:40.581Z,1.30
2019-01-03T12:40:08.662Z,1.27
2019-01-03T12:42:38.167Z,1.35
2019-01-03T12:45:06.598Z,1.40
2019-01-03T12:47:34.586Z,1.30
2019-01-03T12:50:02.459Z,1.20
2019-01-03T12:52:30.217Z,1.50
2019-01-03T12:54:58.167Z,1.00
2019-01-03T12:57:26.190Z,1.30
2019-01-03T12:59:53.993Z,2.00
2019-01-03T13:02:22.245Z,2.00
2019-01-03T13:04:50.550Z,2.30
2019-01-03T13:07:19.622Z,2.22
2019-01-03T13:09:47.585Z,3.12
2019-01-03T13:12:16.021Z,3.37
2019-01-03T13:14:43.975Z,1.05
2019-01-03T13:17:12.513Z,3.78
2019-01-03T13:19:41.014Z,1.23
2019-01-03T13:22:08.992Z,1.40
2019-01-03T13:24:37.669Z,2.53
2019-01-03T13:27:05.673Z,4.97
2019-01-03T13:29:33.765Z,2.45
2019-01-03T13:32:01.494Z,2.97
2019-01-03T13:34:29.558Z,1.20
2019-01-03T13:36:57.526Z,1.17
2019-01-03T13:39:26.077Z,1.48
2019-01-03T13:41:54.039Z,1.12
2019-01-03T13:44:22.006Z,1.08
2019-01-03T13:46:50.650Z,1.42
2019-01-03T13:49:18.663Z,1.25
2019-01-03T13:51:47.265Z,2.00
2019-01-03T13:54:15.265Z,1.30
2019-01-03T13:56:43.016Z,1.98
2019-01-03T13:59:10.992Z,3.00
2019-01-03T14:01:38.970Z,4.00
2019-01-03T14:04:06.425Z,2.37
2019-01-03T14:06:34.424Z,3.37
2019-01-03T14:09:02.430Z,5.05
2019-01-03T14:11:30.429Z,2.97
2019-01-03T14:13:58.004Z,1.17
2019-01-03T14:16:26.152Z,1.52
2019-01-03T14:18:54.261Z,1.10
2019-01-03T14:21:22.805Z,1.30
2019-01-03T14:23:50.804Z,1.05
2019-01-03T14:26:18.842Z,1.17
2019-01-03T14:28:46.881Z,1.10
2019-01-03T14:31:14.874Z,1.65
2019-01-03T14:33:42.867Z,1.30
2019-01-03T14:36:10.843Z,1.00
2019-01-03T14:38:38.796Z,1.25
2019-01-03T14:41:06.972Z,1.20
2019-01-03T14:43:35.101Z,1.98
2019-01-03T14:46:02.818Z,1.33
2019-01-03T14:48:31.380Z,1.23
2019-01-03T14:50:59.106Z,1.30
2019-01-03T14:53:27.116Z,1.50
2019-01-03T14:55:55.060Z,1.17
2019-01-03T14:58:23.037Z,1.10
2019-01-03T15:00:50.739Z,1.10
2019-01-03T15:03:19.203Z,1.50
2019-01-03T15:05:47.234Z,1.20
2019-01-03T15:08:15.229Z,1.10
2019-01-03T15:10:43.627Z,1.50
2019-01-03T15:13:11.594Z,1.60
2019-01-03T15:15:40.166Z,2.28
2019-01-03T15:18:08.153Z,1.98
2019-01-03T15:20:36.136Z,1.50
2019-01-03T15:23:04.082Z,1.67
2019-01-03T15:25:31.584Z,1.48
2019-01-03T15:27:59.303Z,1.20
2019-01-03T15:30:27.310Z,1.20
2019-01-03T15:32:55.021Z,1.92
2019-01-03T15:35:22.987Z,1.50
2019-01-03T15:37:50.961Z,0.98
2019-01-03T15:40:18.967Z,1.45
2019-01-03T15:42:46.723Z,1.20
2019-01-03T15:45:14.740Z,0.93
2019-01-03T15:47:42.735Z,1.55
2019-01-03T15:50:11.277Z,1.48
2019-01-03T15:52:39.266Z,1.12
2019-01-03T15:55:07.063Z,1.52
2019-01-03T15:57:35.040Z,1.30
2019-01-03T16:00:02.473Z,1.05
2019-01-03T16:02:31.252Z,1.20
2019-01-03T16:04:58.616Z,1.55
2019-01-03T16:07:26.630Z,1.80
2019-01-03T16:09:54.615Z,1.55
2019-01-03T16:12:22.644Z,1.60
2019-01-03T16:14:50.629Z,1.30
2019-01-03T16:17:18.646Z,1.25
2019-01-03T16:19:46.647Z,1.08
2019-01-03T16:22:14.694Z,1.10
2019-01-03T16:24:42.377Z,1.33
2019-01-03T16:27:09.922Z,1.33
2019-01-03T16:29:37.827Z,1.20
2019-01-03T16:32:06.072Z,1.83
2019-01-03T16:34:34.062Z,1.48
2019-01-03T16:37:01.748Z,1.23
2019-01-03T16:39:29.783Z,1.00
2019-01-03T16:41:57.460Z,1.30
2019-01-03T16:44:25.493Z,1.60
2019-01-03T16:46:53.452Z,1.70
2019-01-03T16:49:21.442Z,1.45
2019-01-03T16:51:49.577Z,1.58
2019-01-03T16:54:17.731Z,1.30
2019-01-03T16:56:45.709Z,1.60
2019-01-03T16:59:14.303Z,1.60
2019-01-03T17:01:42.355Z,2.00
2019-01-03T17:04:10.317Z,1.25
2019-01-03T17:06:38.299Z,1.87
2019-01-03T17:09:07.055Z,2.58
2019-01-03T17:11:34.494Z,1.95
2019-01-03T17:14:02.438Z,2.95
2019-01-03T17:16:29.942Z,2.35
2019-01-03T17:18:57.929Z,2.15
2019-01-03T17:21:25.905Z,2.33
2019-01-03T17:23:53.665Z,2.08
2019-01-03T17:26:21.651Z,1.92
2019-01-03T17:28:49.076Z,2.15
2019-01-03T17:31:17.126Z,2.50
2019-01-03T17:33:44.534Z,1.92
2019-01-03T17:36:12.243Z,1.62
2019-01-03T17:38:40.303Z,2.08
2019-01-03T17:41:08.309Z,1.73
2019-01-03T17:43:36.368Z,1.95
2019-01-03T17:46:04.519Z,1.90
2019-01-03T17:48:32.800Z,2.62
2019-01-03T17:51:01.021Z,3.40
2019-01-03T17:53:29.571Z,2.33
2019-01-03T17:55:57.271Z,1.75
2019-01-03T17:58:24.693Z,2.08
2019-01-03T18:00:53.325Z,2.10
2019-01-03T18:03:21.279Z,2.28
2019-01-03T18:05:48.998Z,2.25
2019-01-03T18:08:17.142Z,2.08
2019-01-03T18:10:44.956Z,2.65
2019-01-03T18:13:12.907Z,2.40
2019-01-03T18:15:40.650Z,2.03
2019-01-03T18:18:08.649Z,2.40
2019-01-03T18:20:36.613Z,2.08
2019-01-03T18:23:04.989Z,2.20
2019-01-03T18:25:33.555Z,2.53
2019-01-03T18:28:01.543Z,2.40
2019-01-03T18:30:29.270Z,2.70
2019-01-03T18:32:57.220Z,2.03
2019-01-03T18:35:25.235Z,2.10
2019-01-03T18:37:53.254Z,2.47
2019-01-03T18:40:21.746Z,2.30
2019-01-03T18:42:50.316Z,2.78
2019-01-03T18:45:19.874Z,2.40
2019-01-03T18:47:48.364Z,2.25
2019-01-03T18:50:18.974Z,2.62
2019-01-03T18:52:44.316Z,2.23
2019-01-03T18:55:12.897Z,2.17
2019-01-03T18:57:40.885Z,2.53
2019-01-03T19:00:09.312Z,2.58
2019-01-03T19:02:37.274Z,2.50
2019-01-03T19:05:05.287Z,2.23
2019-01-03T19:07:33.787Z,2.30
2019-01-03T19:10:01.760Z,2.20
2019-01-03T19:12:29.171Z,2.50
2019-01-03T19:14:56.889Z,2.55
2019-01-03T19:17:24.613Z,2.70
2019-01-03T19:19:52.584Z,2.47
2019-01-03T19:22:20.587Z,2.30
2019-01-03T19:24:48.515Z,2.47
2019-01-03T19:27:16.224Z,2.35
2019-01-03T19:29:44.560Z,2.65
2019-01-03T19:32:13.050Z,2.73
2019-01-03T19:34:40.998Z,2.72
2019-01-03T19:37:08.699Z,3.73
2019-01-03T19:39:37.150Z,3.25
2019-01-03T19:42:05.123Z,3.53
2019-01-03T19:44:33.120Z,3.35
2019-01-03T19:47:01.110Z,4.05
2019-01-03T19:49:29.097Z,3.60
2019-01-03T19:51:57.416Z,2.80
2019-01-03T19:54:25.422Z,2.67
2019-01-03T19:56:53.737Z,3.53
2019-01-03T19:59:22.269Z,3.00
2019-01-03T20:01:50.249Z,3.33
2019-01-03T20:04:17.896Z,3.17
2019-01-03T20:06:45.948Z,2.70
2019-01-03T20:09:13.888Z,2.55
2019-01-03T20:11:41.821Z,2.92
2019-01-03T20:14:09.513Z,3.15
2019-01-03T20:16:37.511Z,2.70
2019-01-03T20:19:05.490Z,2.83
2019-01-03T20:21:33.226Z,2.58
2019-01-03T20:24:00.900Z,2.62
2019-01-03T20:26:28.625Z,2.20
2019-01-03T20:28:56.597Z,2.92
2019-01-03T20:31:24.541Z,3.00
2019-01-03T20:33:52.601Z,3.00
2019-01-03T20:36:20.611Z,2.53
2019-01-03T20:38:48.622Z,2.90
2019-01-03T20:41:16.610Z,3.12
2019-01-03T20:43:45.085Z,2.70
2019-01-03T20:46:13.169Z,2.70
2019-01-03T20:48:41.136Z,2.92
2019-01-03T20:51:09.405Z,2.90
2019-01-03T20:53:37.377Z,3.05
2019-01-03T20:56:05.362Z,3.08
2019-01-03T20:58:33.762Z,3.00
2019-01-03T21:01:01.727Z,3.95
2019-01-03T21:03:29.396Z,3.97
2019-01-03T21:05:57.386Z,4.07
2019-01-03T21:08:25.956Z,4.35
2019-01-03T21:10:53.968Z,4.67
2019-01-03T21:13:21.682Z,4.70
2019-01-03T21:15:49.668Z,4.67
2019-01-03T21:18:17.690Z,3.80
2019-01-03T21:20:46.130Z,4.27
2019-01-03T21:23:14.070Z,4.13
2019-01-03T21:25:41.988Z,3.50
2019-01-03T21:28:10.147Z,3.90
2019-01-03T21:30:38.094Z,3.37
2019-01-03T21:33:06.051Z,3.20
2019-01-03T21:35:34.015Z,3.58
2019-01-03T21:38:04.420Z,3.60
2019-01-03T21:40:32.379Z,3.90
2019-01-03T21:43:00.319Z,4.27
2019-01-03T21:45:28.252Z,4.07
2019-01-03T21:47:56.741Z,3.97
2019-01-03T21:50:24.446Z,4.10
2019-01-03T21:52:52.980Z,4.35
2019-01-03T21:55:21.261Z,3.50
2019-01-03T21:57:49.277Z,4.50
2019-01-03T22:00:18.440Z,4.32
2019-01-03T22:02:46.399Z,3.97
2019-01-03T22:05:15.030Z,4.90
2019-01-03T22:07:42.964Z,3.40
2019-01-03T22:10:11.313Z,4.03
2019-01-03T22:12:39.301Z,3.92
2019-01-03T22:15:07.692Z,3.70
2019-01-03T22:17:35.676Z,3.67
2019-01-03T22:20:03.419Z,4.78
2019-01-03T22:22:31.353Z,4.17
2019-01-03T22:24:59.329Z,3.90
2019-01-03T22:27:27.319Z,3.92
2019-01-03T22:29:55.034Z,4.47
2019-01-03T22:32:22.713Z,4.05
2019-01-03T22:34:50.731Z,4.10
2019-01-03T22:37:19.221Z,3.47
2019-01-03T22:39:47.176Z,3.25
2019-01-03T22:42:15.476Z,4.10
2019-01-03T22:44:43.911Z,4.03
2019-01-03T22:47:11.905Z,3.72
2019-01-03T22:49:39.907Z,3.50
2019-01-03T22:52:08.645Z,3.87
2019-01-03T22:54:36.618Z,3.42
2019-01-03T22:57:04.643Z,4.07
2019-01-03T22:59:32.591Z,4.20
2019-01-03T23:02:01.087Z,4.05
2019-01-03T23:04:29.060Z,4.28
2019-01-03T23:06:57.094Z,3.90
2019-01-03T23:09:25.063Z,3.50
2019-01-03T23:11:53.445Z,4.22
2019-01-03T23:14:21.409Z,4.62
2019-01-03T23:16:49.094Z,3.78
2019-01-03T23:19:17.079Z,4.10
2019-01-03T23:21:44.802Z,3.58
2019-01-03T23:24:12.779Z,3.95
2019-01-03T23:26:40.728Z,3.47
2019-01-03T23:29:08.409Z,3.87
2019-01-03T23:31:36.076Z,4.18
2019-01-03T23:34:04.111Z,3.92
2019-01-03T23:36:32.116Z,3.85
2019-01-03T23:39:00.091Z,4.18
2019-01-03T23:41:28.483Z,4.10
2019-01-03T23:43:56.443Z,4.22
2019-01-03T23:46:24.423Z,4.47
2019-01-03T23:48:52.722Z,3.97
2019-01-03T23:51:20.669Z,4.60
2019-01-03T23:53:48.385Z,4.18
2019-01-03T23:56:16.407Z,4.68
2019-01-03T23:58:44.140Z,4.68
